Time;durP1;ratioP1;P1;durP2;ratioP2;P2;SDS_P1;SDS_P2;PMS_P1;PMS_P2;Temp;Humidity;BMP_temperature;BMP_pressure;BME280_temperature;BME280_humidity;BME280_pressure;Samples;Min_cycle;Max_cycle;Signal;HPM_P1;HPM_P2
2022/06/21 00:00:07;;;;;;;;;;;;;;;;;;1034673;28;4280;-50
2022/06/21 00:00:45;;;;;;;;;;;;;;;;;;1035043;28;3846;-53
2022/06/21 00:01:17;;;;;;;;;;;;;;;;;;1035832;28;3856;-51
2022/06/21 00:01:47;;;;;;;;;;;;;;;;;;1034248;28;3766;-54
2022/06/21 00:02:19;;;;;;;;;;;;;;;;;;1034206;28;3902;-52
2022/06/21 00:02:53;;;;;;;;;;;;;;;;;;1032956;28;4164;-52
2022/06/21 00:03:25;;;;;;;;;;;;;;;;;;1033901;28;3809;-49
2022/06/21 00:03:55;;;;;;;;;;;;;;;;;;1034101;28;4701;-54
2022/06/21 00:04:25;;;;;;;;;;;;;;;;;;1036091;28;3190;-54
2022/06/21 00:04:56;;;;;;;;;;;;;;;;;;1034457;28;6513;-53
2022/06/21 00:05:34;;;;;;;;;;;;;;;;;;1039096;28;4033;-53
2022/06/21 00:06:04;;;;;;;;;;;;;;;;;;1034327;28;5023;-48
2022/06/21 00:06:34;;;;;;;;;;;;;;;;;;1037596;28;3131;-50
2022/06/21 00:07:05;;;;;;;;;;;;;;;;;;1035314;28;3914;-53
2022/06/21 00:07:35;;;;;;;;;;;;;;;;;;1036470;28;2680;-54
2022/06/21 00:08:11;;;;;;;;;;;;;;;;;;1036408;28;3922;-51
2022/06/21 00:08:41;;;;;;;;;;;;;;;;;;1037096;28;3610;-50
2022/06/21 00:09:13;;;;;;;;;;;;;;;;;;1036248;28;3779;-53
2022/06/21 00:09:43;;;;;;;;;;;;;;;;;;1034914;28;3736;-51
2022/06/21 00:10:15;;;;;;;;;;;;;;;;;;1034785;28;3968;-50
2022/06/21 00:10:45;;;;;;;;;;;;;;;;;;1034074;28;3476;-50
2022/06/21 00:11:18;;;;;;;;;;;;;;;;;;1036213;28;3809;-51
2022/06/21 00:11:48;;;;;;;;;;;;;;;;;;1035752;28;4048;-52
2022/06/21 00:12:20;;;;;;;;;;;;;;;;;;1034603;28;3856;-52
2022/06/21 00:12:50;;;;;;;;;;;;;;;;;;1036018;28;3951;-51
2022/06/21 00:13:28;;;;;;;;;;;;;;;;;;1032487;28;3759;-51
2022/06/21 00:13:58;;;;;;;;;;;;;;;;;;1034640;28;4278;-52
2022/06/21 00:14:29;;;;;;;;;;;;;;;;;;1036056;28;3742;-52
2022/06/21 00:14:59;;;;;;;;;;;;;;;;;;1035623;28;3993;-50
2022/06/21 00:15:29;;;;;;;;;;;;;;;;;;1035572;28;3807;-52
2022/06/21 00:16:05;;;;;;;;;;;;;;;;;;1032883;28;4350;-51
2022/06/21 00:16:36;;;;;;;;;;;;;;;;;;1035751;28;3786;-52
2022/06/21 00:17:08;;;;;;;;;;;;;;;;;;1035955;28;3922;-54
2022/06/21 00:17:41;;;;;;;;;;;;;;;;;;1036166;28;3703;-52
2022/06/21 00:18:12;;;;;;;;;;;;;;;;;;1033947;28;3963;-49
2022/06/21 00:18:44;;;;;;;;;;;;;;;;;;1034819;28;3574;-49
2022/06/21 00:19:20;;;;;;;;;;;;;;;;;;1033924;28;3872;-50
2022/06/21 00:19:51;;;;;;;;;;;;;;;;;;1034887;28;3760;-51
2022/06/21 00:20:23;;;;;;;;;;;;;;;;;;1034022;28;4003;-52
2022/06/21 00:21:00;;;;;;;;;;;;;;;;;;1035507;28;3885;-49
2022/06/21 00:21:33;;;;;;;;;;;;;;;;;;1035500;28;4003;-50
2022/06/21 00:22:03;;;;;;;;;;;;;;;;;;1034854;28;3876;-52
2022/06/21 00:22:33;;;;;;;;;;;;;;;;;;1036360;28;2966;-50
2022/06/21 00:23:04;;;;;;;;;;;;;;;;;;1035704;28;3877;-52
2022/06/21 00:23:34;;;;;;;;;;;;;;;;;;1035048;28;3723;-48
2022/06/21 00:24:05;;;;;;;;;;;;;;;;;;1036268;28;3819;-50
2022/06/21 00:24:35;;;;;;;;;;;;;;;;;;1036597;28;4071;-49
2022/06/21 00:25:14;;;;;;;;;;;;;;;;;;1036443;28;4140;-51
2022/06/21 00:25:46;;;;;;;;;;;;;;;;;;1035219;28;3496;-53
2022/06/21 00:26:17;;;;;;;;;;;;;;;;;;1037305;28;3941;-49
2022/06/21 00:26:47;;;;;;;;;;;;;;;;;;1035307;28;4126;-53
2022/06/21 00:27:19;;;;;;;;;;;;;;;;;;1035753;28;4137;-52
2022/06/21 00:27:50;;;;;;;;;;;;;;;;;;1035330;28;3750;-51
2022/06/21 00:28:21;;;;;;;;;;;;;;;;;;1035103;28;4176;-53
2022/06/21 00:28:51;;;;;;;;;;;;;;;;;;1035255;28;4010;-52
2022/06/21 00:29:21;;;;;;;;;;;;;;;;;;1035628;28;3799;-50
2022/06/21 00:29:52;;;;;;;;;;;;;;;;;;1032675;28;3831;-49
2022/06/21 00:30:22;;;;;;;;;;;;;;;;;;1034353;28;3986;-53
2022/06/21 00:30:54;;;;;;;;;;;;;;;;;;1036448;28;4106;-50
2022/06/21 00:31:28;;;;;;;;;;;;;;;;;;1039592;28;3984;-54
2022/06/21 00:31:58;;;;;;;;;;;;;;;;;;1042174;28;5494;-52
2022/06/21 00:32:29;;;;;;;;;;;;;;;;;;1041897;28;3960;-52
2022/06/21 00:32:59;;;;;;;;;;;;;;;;;;1042288;28;3856;-53
2022/06/21 00:33:29;;;;;;;;;;;;;;;;;;1035829;28;3876;-53
2022/06/21 00:34:14;;;;;;;;;;;;;;;;;;1034619;28;3934;-52
2022/06/21 00:34:44;;;;;;;;;;;;;;;;;;1034236;28;2575;-49
2022/06/21 00:35:16;;;;;;;;;;;;;;;;;;1035371;28;4241;-50
2022/06/21 00:35:47;;;;;;;;;;;;;;;;;;1034091;28;3709;-49
2022/06/21 00:36:21;;;;;;;;;;;;;;;;;;1034234;28;3825;-49
2022/06/21 00:36:51;;;;;;;;;;;;;;;;;;1037101;28;1717;-51
2022/06/21 00:37:22;;;;;;;;;;;;;;;;;;1035896;28;3808;-49
2022/06/21 00:37:53;;;;;;;;;;;;;;;;;;1036156;28;3856;-51
2022/06/21 00:38:28;;;;;;;;;;;;;;;;;;1044359;28;3770;-55
2022/06/21 00:39:00;;;;;;;;;;;;;;;;;;1043298;28;3865;-53
2022/06/21 00:39:30;;;;;;;;;;;;;;;;;;1044690;28;4045;-50
2022/06/21 00:40:01;;;;;;;;;;;;;;;;;;1040160;28;3883;-52
2022/06/21 00:40:32;;;;;;;;;;;;;;;;;;1034807;28;3784;-53
2022/06/21 00:41:05;;;;;;;;;;;;;;;;;;1036869;28;4268;-49
2022/06/21 00:41:44;;;;;;;;;;;;;;;;;;1034875;28;3831;-50
2022/06/21 00:42:19;;;;;;;;;;;;;;;;;;1035478;28;4221;-52
2022/06/21 00:42:58;;;;;;;;;;;;;;;;;;1035377;28;3881;-52
2022/06/21 00:43:30;;;;;;;;;;;;;;;;;;1035663;28;4798;-51
2022/06/21 00:44:02;;;;;;;;;;;;;;;;;;1034557;28;3867;-53
2022/06/21 00:44:36;;;;;;;;;;;;;;;;;;1036253;28;3911;-52
2022/06/21 00:45:11;;;;;;;;;;;;;;;;;;1034867;28;3943;-50
2022/06/21 00:45:44;;;;;;;;;;;;;;;;;;1034126;28;3793;-48
2022/06/21 00:46:20;;;;;;;;;;;;;;;;;;1033808;28;3776;-54
2022/06/21 00:47:01;;;;;;;;;;;;;;;;;;1035760;28;3745;-52
2022/06/21 00:47:33;;;;;;;;;;;;;;;;;;1035889;28;3678;-51
2022/06/21 00:48:10;;;;;;;;;;;;;;;;;;1035560;28;3811;-51
2022/06/21 00:48:41;;;;;;;;;;;;;;;;;;1035447;28;2725;-52
2022/06/21 00:49:16;;;;;;;;;;;;;;;;;;1035271;28;3970;-51
2022/06/21 00:49:52;;;;;;;;;;;;;;;;;;1035544;28;3730;-51
2022/06/21 00:50:43;;;;;;;;;;;;;;;;;;1035327;28;5051;-49
2022/06/21 00:51:20;;;;;;;;;;;;;;;;;;1025628;28;3800;-52
2022/06/21 00:51:53;;;;;;;;;;;;;;;;;;1032144;28;3884;-52
2022/06/21 00:52:30;;;;;;;;;;;;;;;;;;1030800;28;3700;-49
2022/06/21 00:53:02;;;;;;;;;;;;;;;;;;1031797;28;4305;-51
2022/06/21 00:53:33;;;;;;;;;;;;;;;;;;1036766;28;3632;-52
2022/06/21 00:54:06;;;;;;;;;;;;;;;;;;1034303;28;3957;-52
2022/06/21 00:54:42;;;;;;;;;;;;;;;;;;1035771;28;3706;-49
2022/06/21 00:55:29;;;;;;;;;;;;;;;;;;1037251;28;5265;-50
2022/06/21 00:56:21;;;;;;;;;;;;;;;;;;1038698;28;3901;-52
2022/06/21 00:56:56;;;;;;;;;;;;;;;;;;1040792;28;3770;-54
2022/06/21 00:57:29;;;;;;;;;;;;;;;;;;1039435;28;4352;-51
2022/06/21 00:57:59;;;;;;;;;;;;;;;;;;1039525;28;3855;-52
2022/06/21 00:58:31;;;;;;;;;;;;;;;;;;1039735;28;2921;-53
2022/06/21 00:59:17;;;;;;;;;;;;;;;;;;1039557;28;4126;-49
2022/06/21 00:59:50;;;;;;;;;;;;;;;;;;1040203;28;3968;-50
2022/06/21 01:00:26;;;;;;;;;;;;;;;;;;1039389;28;4179;-51
2022/06/21 01:00:56;;;;;;;;;;;;;;;;;;1039050;28;4419;-50
2022/06/21 01:01:29;;;;;;;;;;;;;;;;;;1035652;28;3977;-51
2022/06/21 01:02:01;;;;;;;;;;;;;;;;;;1033296;28;3906;-53
2022/06/21 01:02:34;;;;;;;;;;;;;;;;;;1036544;28;2914;-51
2022/06/21 01:03:12;;;;;;;;;;;;;;;;;;1032179;28;3927;-49
2022/06/21 01:03:47;;;;;;;;;;;;;;;;;;1027596;28;3774;-51
2022/06/21 01:04:33;;;;;;;;;;;;;;;;;;1028290;28;3823;-52
2022/06/21 01:05:03;;;;;;;;;;;;;;;;;;1032534;28;3878;-53
2022/06/21 01:05:37;;;;;;;;;;;;;;;;;;1037350;28;3818;-50
2022/06/21 01:06:10;;;;;;;;;;;;;;;;;;1038889;28;3991;-50
2022/06/21 01:06:42;;;;;;;;;;;;;;;;;;1034866;28;4296;-52
2022/06/21 01:07:12;;;;;;;;;;;;;;;;;;1035392;28;4224;-52
2022/06/21 01:07:43;;;;;;;;;;;;;;;;;;1036104;28;3185;-52
2022/06/21 01:08:17;;;;;;;;;;;;;;;;;;1035357;28;3895;-52
2022/06/21 01:08:56;;;;;;;;;;;;;;;;;;1039341;28;3923;-52
2022/06/21 01:09:31;;;;;;;;;;;;;;;;;;1040098;28;2989;-50
2022/06/21 01:10:04;;;;;;;;;;;;;;;;;;1039849;28;3941;-55
2022/06/21 01:10:34;;;;;;;;;;;;;;;;;;1038789;28;3791;-49
2022/06/21 01:11:08;;;;;;;;;;;;;;;;;;1033887;28;3851;-52
2022/06/21 01:11:40;;;;;;;;;;;;;;;;;;1035460;28;4188;-49
2022/06/21 01:12:17;;;;;;;;;;;;;;;;;;1034837;28;3881;-54
2022/06/21 01:12:49;;;;;;;;;;;;;;;;;;1035386;28;3773;-52
2022/06/21 01:13:22;;;;;;;;;;;;;;;;;;1037961;28;3884;-49
2022/06/21 01:13:55;;;;;;;;;;;;;;;;;;1035179;28;3790;-50
2022/06/21 01:14:27;;;;;;;;;;;;;;;;;;1031092;28;3744;-49
2022/06/21 01:14:59;;;;;;;;;;;;;;;;;;1031277;28;4326;-55
2022/06/21 01:15:50;;;;;;;;;;;;;;;;;;1032987;28;3149;-50
2022/06/21 01:16:20;;;;;;;;;;;;;;;;;;1037065;28;6183;-51
2022/06/21 01:16:51;;;;;;;;;;;;;;;;;;1034782;28;3826;-53
2022/06/21 01:17:21;;;;;;;;;;;;;;;;;;1035393;28;4181;-50
2022/06/21 01:17:55;;;;;;;;;;;;;;;;;;1026106;28;3848;-48
2022/06/21 01:18:25;;;;;;;;;;;;;;;;;;1027505;28;3974;-54
2022/06/21 01:18:56;;;;;;;;;;;;;;;;;;1032784;28;4962;-53
2022/06/21 01:19:35;;;;;;;;;;;;;;;;;;1032787;28;3871;-52
2022/06/21 01:20:10;;;;;;;;;;;;;;;;;;1039279;28;3914;-54
2022/06/21 01:20:44;;;;;;;;;;;;;;;;;;1039914;28;2453;-48
2022/06/21 01:21:16;;;;;;;;;;;;;;;;;;1037160;28;4217;-51
2022/06/21 01:21:50;;;;;;;;;;;;;;;;;;1039293;28;3781;-49
2022/06/21 01:22:37;;;;;;;;;;;;;;;;;;1034550;28;3899;-53
2022/06/21 01:23:11;;;;;;;;;;;;;;;;;;1035052;28;3960;-49
2022/06/21 01:24:00;;;;;;;;;;;;;;;;;;1036250;28;3245;-53
2022/06/21 01:24:54;;;;;;;;;;;;;;;;;;1038047;28;3835;-52
2022/06/21 01:25:36;;;;;;;;;;;;;;;;;;1038431;28;4108;-54
2022/06/21 01:26:27;;;;;;;;;;;;;;;;;;1037664;28;4440;-51
2022/06/21 01:27:01;;;;;;;;;;;;;;;;;;1039801;28;3911;-51
2022/06/21 01:27:31;;;;;;;;;;;;;;;;;;1040490;28;3794;-51
2022/06/21 01:28:02;;;;;;;;;;;;;;;;;;1038338;28;3903;-51
2022/06/21 01:28:32;;;;;;;;;;;;;;;;;;1039215;28;3327;-49
2022/06/21 01:29:05;;;;;;;;;;;;;;;;;;1036217;28;3820;-51
2022/06/21 01:29:35;;;;;;;;;;;;;;;;;;1030503;28;3044;-49
2022/06/21 01:30:06;;;;;;;;;;;;;;;;;;1030261;28;3937;-51
2022/06/21 01:30:37;;;;;;;;;;;;;;;;;;1033074;28;2238;-52
2022/06/21 01:31:08;;;;;;;;;;;;;;;;;;1034876;28;3973;-50
2022/06/21 01:31:38;;;;;;;;;;;;;;;;;;1041109;28;3525;-52
2022/06/21 01:32:09;;;;;;;;;;;;;;;;;;1035144;28;4093;-50
2022/06/21 01:32:39;;;;;;;;;;;;;;;;;;1034887;28;3756;-52
2022/06/21 01:33:12;;;;;;;;;;;;;;;;;;1035215;28;3862;-54
2022/06/21 01:33:42;;;;;;;;;;;;;;;;;;1037644;28;2510;-51
2022/06/21 01:34:23;;;;;;;;;;;;;;;;;;1038032;28;4048;-51
2022/06/21 01:34:53;;;;;;;;;;;;;;;;;;1040637;28;3677;-54
2022/06/21 01:35:28;;;;;;;;;;;;;;;;;;1039625;28;4919;-52
2022/06/21 01:36:04;;;;;;;;;;;;;;;;;;1038814;28;3943;-53
2022/06/21 01:36:35;;;;;;;;;;;;;;;;;;1039240;28;3834;-53
2022/06/21 01:37:06;;;;;;;;;;;;;;;;;;1041529;28;4223;-51
2022/06/21 01:37:36;;;;;;;;;;;;;;;;;;1039258;28;3776;-51
2022/06/21 01:38:10;;;;;;;;;;;;;;;;;;1041368;28;3862;-51
2022/06/21 01:38:46;;;;;;;;;;;;;;;;;;1039675;28;2819;-52
2022/06/21 01:39:28;;;;;;;;;;;;;;;;;;1039401;28;3944;-52
2022/06/21 01:40:01;;;;;;;;;;;;;;;;;;1039492;28;3874;-52
2022/06/21 01:40:35;;;;;;;;;;;;;;;;;;1041261;28;3816;-53
2022/06/21 01:41:12;;;;;;;;;;;;;;;;;;1040420;28;3791;-52
2022/06/21 01:41:44;;;;;;;;;;;;;;;;;;1040566;28;2847;-53
2022/06/21 01:42:21;;;;;;;;;;;;;;;;;;1040618;28;3967;-52
2022/06/21 01:42:54;;;;;;;;;;;;;;;;;;1034938;28;3572;-51
2022/06/21 01:43:27;;;;;;;;;;;;;;;;;;1035134;28;3805;-54
2022/06/21 01:43:59;;;;;;;;;;;;;;;;;;1036117;28;4264;-51
2022/06/21 01:44:32;;;;;;;;;;;;;;;;;;1035762;28;3720;-52
2022/06/21 01:45:05;;;;;;;;;;;;;;;;;;1039863;28;3919;-53
2022/06/21 01:45:39;;;;;;;;;;;;;;;;;;1039961;28;3352;-49
2022/06/21 01:46:12;;;;;;;;;;;;;;;;;;1039728;28;3848;-51
2022/06/21 01:46:42;;;;;;;;;;;;;;;;;;1040072;28;3655;-52
2022/06/21 01:47:14;;;;;;;;;;;;;;;;;;1036326;28;4431;-50
2022/06/21 01:47:52;;;;;;;;;;;;;;;;;;1035591;28;3439;-50
2022/06/21 01:48:24;;;;;;;;;;;;;;;;;;1036552;28;4184;-51
2022/06/21 01:49:00;;;;;;;;;;;;;;;;;;1035457;28;4236;-51
2022/06/21 01:49:33;;;;;;;;;;;;;;;;;;1036176;28;3363;-51
2022/06/21 01:50:04;;;;;;;;;;;;;;;;;;1036416;28;4042;-50
2022/06/21 01:50:35;;;;;;;;;;;;;;;;;;1035939;28;2771;-49
2022/06/21 01:51:07;;;;;;;;;;;;;;;;;;1038185;28;3806;-52
2022/06/21 01:51:45;;;;;;;;;;;;;;;;;;1040005;28;3808;-51
2022/06/21 01:52:18;;;;;;;;;;;;;;;;;;1039387;28;3868;-50
2022/06/21 01:52:48;;;;;;;;;;;;;;;;;;1041128;28;3884;-52
2022/06/21 01:53:20;;;;;;;;;;;;;;;;;;1038147;28;3832;-50
2022/06/21 01:53:50;;;;;;;;;;;;;;;;;;1039557;28;3797;-53
2022/06/21 01:54:23;;;;;;;;;;;;;;;;;;1034080;28;4216;-51
2022/06/21 01:54:56;;;;;;;;;;;;;;;;;;1034506;28;4317;-52
2022/06/21 01:55:45;;;;;;;;;;;;;;;;;;1034938;28;1754;-49
2022/06/21 01:56:21;;;;;;;;;;;;;;;;;;1034287;28;3898;-54
2022/06/21 01:56:52;;;;;;;;;;;;;;;;;;1037429;28;3191;-51
2022/06/21 01:57:23;;;;;;;;;;;;;;;;;;1037197;28;4184;-49
2022/06/21 01:57:54;;;;;;;;;;;;;;;;;;1035908;28;3878;-49
2022/06/21 01:58:26;;;;;;;;;;;;;;;;;;1036512;28;2907;-50
2022/06/21 01:58:59;;;;;;;;;;;;;;;;;;1034925;28;4298;-51
2022/06/21 01:59:31;;;;;;;;;;;;;;;;;;1036788;28;3798;-52
2022/06/21 02:00:03;;;;;;;;;;;;;;;;;;1033931;28;3890;-52
2022/06/21 02:00:36;;;;;;;;;;;;;;;;;;1034850;28;2995;-50
2022/06/21 02:01:18;;;;;;;;;;;;;;;;;;1036137;28;3881;-51
2022/06/21 02:01:52;;;;;;;;;;;;;;;;;;1036026;28;2928;-52
2022/06/21 02:02:24;;;;;;;;;;;;;;;;;;1034281;28;4638;-51
2022/06/21 02:02:56;;;;;;;;;;;;;;;;;;1033918;28;4236;-52
2022/06/21 02:03:29;;;;;;;;;;;;;;;;;;1039079;28;3709;-52
2022/06/21 02:04:01;;;;;;;;;;;;;;;;;;1038697;28;5182;-53
2022/06/21 02:04:34;;;;;;;;;;;;;;;;;;1040845;28;3955;-50
2022/06/21 02:05:07;;;;;;;;;;;;;;;;;;1037687;28;4743;-49
2022/06/21 02:05:40;;;;;;;;;;;;;;;;;;1035040;28;3705;-52
2022/06/21 02:06:12;;;;;;;;;;;;;;;;;;1035768;28;3819;-51
2022/06/21 02:06:44;;;;;;;;;;;;;;;;;;1036039;28;3758;-53
2022/06/21 02:07:18;;;;;;;;;;;;;;;;;;1034485;28;3849;-55
2022/06/21 02:07:49;;;;;;;;;;;;;;;;;;1036196;28;2983;-51
2022/06/21 02:08:22;;;;;;;;;;;;;;;;;;1036750;28;3940;-52
2022/06/21 02:08:55;;;;;;;;;;;;;;;;;;1034152;28;1761;-53
2022/06/21 02:09:30;;;;;;;;;;;;;;;;;;1034075;28;3911;-52
2022/06/21 02:10:18;;;;;;;;;;;;;;;;;;1031495;28;4156;-49
2022/06/21 02:10:55;;;;;;;;;;;;;;;;;;1034866;28;3197;-53
2022/06/21 02:11:28;;;;;;;;;;;;;;;;;;1035604;28;3799;-49
2022/06/21 02:12:01;;;;;;;;;;;;;;;;;;1035975;28;3879;-49
2022/06/21 02:12:32;;;;;;;;;;;;;;;;;;1036031;28;2727;-51
2022/06/21 02:13:05;;;;;;;;;;;;;;;;;;1035622;28;4240;-51
2022/06/21 02:13:38;;;;;;;;;;;;;;;;;;1032478;28;2958;-54
2022/06/21 02:14:29;;;;;;;;;;;;;;;;;;1032229;28;4021;-52
2022/06/21 02:15:01;;;;;;;;;;;;;;;;;;1035992;28;4010;-51
2022/06/21 02:15:44;;;;;;;;;;;;;;;;;;1036816;28;2800;-52
2022/06/21 02:16:16;;;;;;;;;;;;;;;;;;1036344;28;3772;-53
2022/06/21 02:16:49;;;;;;;;;;;;;;;;;;1035378;28;2585;-51
2022/06/21 02:17:25;;;;;;;;;;;;;;;;;;1035266;28;3760;-51
2022/06/21 02:17:56;;;;;;;;;;;;;;;;;;1036132;28;3912;-52
2022/06/21 02:18:27;;;;;;;;;;;;;;;;;;1036803;28;3330;-51
2022/06/21 02:18:58;;;;;;;;;;;;;;;;;;1033806;28;4223;-53
2022/06/21 02:19:40;;;;;;;;;;;;;;;;;;1037418;28;1997;-53
2022/06/21 02:20:31;;;;;;;;;;;;;;;;;;1036611;28;3863;-49
2022/06/21 02:21:05;;;;;;;;;;;;;;;;;;1037208;28;3883;-51
2022/06/21 02:21:38;;;;;;;;;;;;;;;;;;1036425;28;3748;-50
2022/06/21 02:22:13;;;;;;;;;;;;;;;;;;1034797;28;3789;-50
2022/06/21 02:22:44;;;;;;;;;;;;;;;;;;1034795;28;3485;-52
2022/06/21 02:23:16;;;;;;;;;;;;;;;;;;1035326;28;3818;-50
2022/06/21 02:23:49;;;;;;;;;;;;;;;;;;1036040;28;3778;-52
2022/06/21 02:24:23;;;;;;;;;;;;;;;;;;1044141;28;3753;-49
2022/06/21 02:24:53;;;;;;;;;;;;;;;;;;1042618;28;3502;-53
2022/06/21 02:25:24;;;;;;;;;;;;;;;;;;1044481;28;4121;-54
2022/06/21 02:25:56;;;;;;;;;;;;;;;;;;1043653;28;4301;-51
2022/06/21 02:26:28;;;;;;;;;;;;;;;;;;1036316;28;2774;-48
2022/06/21 02:26:59;;;;;;;;;;;;;;;;;;1036465;28;3831;-49
2022/06/21 02:27:34;;;;;;;;;;;;;;;;;;1037738;28;1860;-53
2022/06/21 02:28:06;;;;;;;;;;;;;;;;;;1033559;28;3922;-50
2022/06/21 02:28:36;;;;;;;;;;;;;;;;;;1036718;28;3904;-50
2022/06/21 02:29:08;;;;;;;;;;;;;;;;;;1035234;28;4061;-50
2022/06/21 02:29:40;;;;;;;;;;;;;;;;;;1035505;28;3702;-49
2022/06/21 02:30:15;;;;;;;;;;;;;;;;;;1035644;28;3870;-50
2022/06/21 02:30:47;;;;;;;;;;;;;;;;;;1036966;28;4301;-50
2022/06/21 02:31:17;;;;;;;;;;;;;;;;;;1036919;28;4229;-51
2022/06/21 02:31:49;;;;;;;;;;;;;;;;;;1037047;28;4029;-51
2022/06/21 02:32:27;;;;;;;;;;;;;;;;;;1040968;28;3758;-50
2022/06/21 02:33:00;;;;;;;;;;;;;;;;;;1039963;28;3807;-52
2022/06/21 02:33:32;;;;;;;;;;;;;;;;;;1039683;28;3816;-52
2022/06/21 02:34:12;;;;;;;;;;;;;;;;;;1035554;28;4230;-50
2022/06/21 02:34:44;;;;;;;;;;;;;;;;;;1036942;28;3876;-53
2022/06/21 02:35:31;;;;;;;;;;;;;;;;;;1035489;28;4016;-51
2022/06/21 02:36:16;;;;;;;;;;;;;;;;;;1035574;28;3898;-51
2022/06/21 02:36:49;;;;;;;;;;;;;;;;;;1036774;28;3765;-52
2022/06/21 02:37:19;;;;;;;;;;;;;;;;;;1032330;28;3841;-50
2022/06/21 02:37:51;;;;;;;;;;;;;;;;;;1037608;28;3961;-49
2022/06/21 02:38:26;;;;;;;;;;;;;;;;;;1035469;28;3900;-49
2022/06/21 02:38:58;;;;;;;;;;;;;;;;;;1035478;28;4108;-53
2022/06/21 02:39:30;;;;;;;;;;;;;;;;;;1036184;28;3646;-50
2022/06/21 02:40:04;;;;;;;;;;;;;;;;;;1031095;28;4401;-52
2022/06/21 02:40:37;;;;;;;;;;;;;;;;;;1030824;28;3540;-49
2022/06/21 02:41:26;;;;;;;;;;;;;;;;;;1032424;28;4105;-50
2022/06/21 02:42:01;;;;;;;;;;;;;;;;;;1034547;28;4217;-51
2022/06/21 02:42:33;;;;;;;;;;;;;;;;;;1035847;28;3009;-50
2022/06/21 02:43:06;;;;;;;;;;;;;;;;;;1034787;28;3875;-51
2022/06/21 02:43:38;;;;;;;;;;;;;;;;;;1036423;28;3757;-54
2022/06/21 02:44:25;;;;;;;;;;;;;;;;;;1034354;28;3878;-52
2022/06/21 02:45:01;;;;;;;;;;;;;;;;;;1035261;28;3894;-50
2022/06/21 02:45:49;;;;;;;;;;;;;;;;;;1034633;28;3741;-51
2022/06/21 02:46:22;;;;;;;;;;;;;;;;;;1038603;28;3789;-50
2022/06/21 02:46:54;;;;;;;;;;;;;;;;;;1039926;28;3761;-52
2022/06/21 02:47:27;;;;;;;;;;;;;;;;;;1039647;28;3951;-53
2022/06/21 02:48:00;;;;;;;;;;;;;;;;;;1040050;28;4045;-55
2022/06/21 02:48:34;;;;;;;;;;;;;;;;;;1035488;28;3772;-51
2022/06/21 02:49:05;;;;;;;;;;;;;;;;;;1035338;28;3893;-51
2022/06/21 02:49:38;;;;;;;;;;;;;;;;;;1036712;28;3756;-52
2022/06/21 02:50:27;;;;;;;;;;;;;;;;;;1035629;28;3872;-52
2022/06/21 02:51:02;;;;;;;;;;;;;;;;;;1034041;28;4088;-49
2022/06/21 02:51:41;;;;;;;;;;;;;;;;;;1035389;28;3766;-50
2022/06/21 02:52:14;;;;;;;;;;;;;;;;;;1036281;28;3899;-50
2022/06/21 02:52:45;;;;;;;;;;;;;;;;;;1033112;28;3221;-50
2022/06/21 02:53:19;;;;;;;;;;;;;;;;;;1037055;28;3824;-54
2022/06/21 02:54:10;;;;;;;;;;;;;;;;;;1036106;28;3529;-53
2022/06/21 02:54:44;;;;;;;;;;;;;;;;;;1034359;28;4114;-52
2022/06/21 02:55:34;;;;;;;;;;;;;;;;;;1036568;28;4077;-53
2022/06/21 02:56:13;;;;;;;;;;;;;;;;;;1043799;28;3829;-53
2022/06/21 02:57:03;;;;;;;;;;;;;;;;;;1043700;28;2398;-51
2022/06/21 02:57:35;;;;;;;;;;;;;;;;;;1042458;28;4456;-51
2022/06/21 02:58:24;;;;;;;;;;;;;;;;;;1041142;28;3791;-49
2022/06/21 02:58:56;;;;;;;;;;;;;;;;;;1040670;28;3830;-51
2022/06/21 02:59:27;;;;;;;;;;;;;;;;;;1040719;28;3959;-51
2022/06/21 02:59:57;;;;;;;;;;;;;;;;;;1039408;28;3944;-50
2022/06/21 03:00:28;;;;;;;;;;;;;;;;;;1040380;28;3871;-54
2022/06/21 03:01:01;;;;;;;;;;;;;;;;;;1040022;28;3876;-49
2022/06/21 03:01:34;;;;;;;;;;;;;;;;;;1040006;28;3911;-53
2022/06/21 03:02:07;;;;;;;;;;;;;;;;;;1040917;28;4197;-53
2022/06/21 03:02:37;;;;;;;;;;;;;;;;;;1041077;28;2286;-53
2022/06/21 03:03:11;;;;;;;;;;;;;;;;;;1038891;28;3884;-50
2022/06/21 03:03:41;;;;;;;;;;;;;;;;;;1036408;28;2734;-50
2022/06/21 03:04:16;;;;;;;;;;;;;;;;;;1036163;28;3860;-52
2022/06/21 03:04:51;;;;;;;;;;;;;;;;;;1040662;28;2320;-52
2022/06/21 03:05:25;;;;;;;;;;;;;;;;;;1040017;28;3808;-52
2022/06/21 03:05:57;;;;;;;;;;;;;;;;;;1043048;28;4215;-50
2022/06/21 03:06:30;;;;;;;;;;;;;;;;;;1038254;28;3788;-50
2022/06/21 03:07:00;;;;;;;;;;;;;;;;;;1034317;28;3922;-51
2022/06/21 03:07:36;;;;;;;;;;;;;;;;;;1035575;28;3866;-50
2022/06/21 03:08:07;;;;;;;;;;;;;;;;;;1036319;28;3901;-54
2022/06/21 03:08:45;;;;;;;;;;;;;;;;;;1041168;28;3546;-50
2022/06/21 03:09:19;;;;;;;;;;;;;;;;;;1035126;28;4116;-54
2022/06/21 03:09:51;;;;;;;;;;;;;;;;;;1036114;28;2887;-53
2022/06/21 03:10:23;;;;;;;;;;;;;;;;;;1036757;28;4365;-50
2022/06/21 03:10:53;;;;;;;;;;;;;;;;;;1037524;28;2983;-49
2022/06/21 03:11:27;;;;;;;;;;;;;;;;;;1040104;28;3722;-55
2022/06/21 03:12:00;;;;;;;;;;;;;;;;;;1040681;28;3799;-51
2022/06/21 03:12:32;;;;;;;;;;;;;;;;;;1040794;28;3852;-52
2022/06/21 03:13:09;;;;;;;;;;;;;;;;;;1038272;28;4227;-53
2022/06/21 03:13:39;;;;;;;;;;;;;;;;;;1040458;28;3704;-53
2022/06/21 03:14:14;;;;;;;;;;;;;;;;;;1040642;28;4227;-52
2022/06/21 03:14:45;;;;;;;;;;;;;;;;;;1040751;28;3562;-52
2022/06/21 03:15:16;;;;;;;;;;;;;;;;;;1038426;28;4264;-49
2022/06/21 03:15:51;;;;;;;;;;;;;;;;;;1041499;28;2520;-53
2022/06/21 03:16:22;;;;;;;;;;;;;;;;;;1040067;28;3864;-51
2022/06/21 03:16:54;;;;;;;;;;;;;;;;;;1040588;28;3878;-50
2022/06/21 03:17:30;;;;;;;;;;;;;;;;;;1041137;28;3703;-51
2022/06/21 03:18:04;;;;;;;;;;;;;;;;;;1039494;28;4139;-53
2022/06/21 03:18:37;;;;;;;;;;;;;;;;;;1039312;28;3770;-52
2022/06/21 03:19:14;;;;;;;;;;;;;;;;;;1039509;28;4030;-53
2022/06/21 03:19:47;;;;;;;;;;;;;;;;;;1037130;28;3715;-50
2022/06/21 03:20:19;;;;;;;;;;;;;;;;;;1031452;28;3873;-53
2022/06/21 03:20:51;;;;;;;;;;;;;;;;;;1030241;28;3827;-52
2022/06/21 03:21:28;;;;;;;;;;;;;;;;;;1027470;28;3869;-50
2022/06/21 03:22:14;;;;;;;;;;;;;;;;;;1032131;28;4267;-50
2022/06/21 03:22:45;;;;;;;;;;;;;;;;;;1037113;28;3257;-49
2022/06/21 03:23:17;;;;;;;;;;;;;;;;;;1039448;28;4873;-51
2022/06/21 03:23:47;;;;;;;;;;;;;;;;;;1040950;28;2342;-51
2022/06/21 03:24:26;;;;;;;;;;;;;;;;;;1036514;28;3772;-53
2022/06/21 03:24:58;;;;;;;;;;;;;;;;;;1041340;28;4227;-53
2022/06/21 03:25:48;;;;;;;;;;;;;;;;;;1041034;28;2459;-49
2022/06/21 03:26:19;;;;;;;;;;;;;;;;;;1032129;28;3845;-49
2022/06/21 03:26:53;;;;;;;;;;;;;;;;;;1032745;28;2988;-51
2022/06/21 03:27:41;;;;;;;;;;;;;;;;;;1027819;28;3796;-51
2022/06/21 03:28:38;;;;;;;;;;;;;;;;;;1033151;28;3947;-51
2022/06/21 03:29:08;;;;;;;;;;;;;;;;;;1034518;28;4172;-49
2022/06/21 03:29:38;;;;;;;;;;;;;;;;;;1040906;28;3835;-52
2022/06/21 03:30:09;;;;;;;;;;;;;;;;;;1039527;28;4255;-50
2022/06/21 03:30:39;;;;;;;;;;;;;;;;;;1038573;28;3768;-48
2022/06/21 03:31:30;;;;;;;;;;;;;;;;;;1039855;28;4112;-50
2022/06/21 03:32:02;;;;;;;;;;;;;;;;;;1034324;28;4049;-53
2022/06/21 03:32:34;;;;;;;;;;;;;;;;;;1036266;28;2681;-52
2022/06/21 03:33:04;;;;;;;;;;;;;;;;;;1036703;28;4298;-51
2022/06/21 03:33:36;;;;;;;;;;;;;;;;;;1035579;28;3336;-49
2022/06/21 03:34:10;;;;;;;;;;;;;;;;;;1034396;28;3886;-57
2022/06/21 03:34:50;;;;;;;;;;;;;;;;;;1036102;28;3347;-50
2022/06/21 03:35:21;;;;;;;;;;;;;;;;;;1035685;28;3894;-47
2022/06/21 03:35:51;;;;;;;;;;;;;;;;;;1040859;28;3159;-52
2022/06/21 03:36:22;;;;;;;;;;;;;;;;;;1038488;28;4168;-52
2022/06/21 03:36:53;;;;;;;;;;;;;;;;;;1039910;28;2366;-52
2022/06/21 03:37:23;;;;;;;;;;;;;;;;;;1037397;28;3751;-54
2022/06/21 03:37:54;;;;;;;;;;;;;;;;;;1040606;28;4280;-49
2022/06/21 03:38:24;;;;;;;;;;;;;;;;;;1040275;28;3956;-52
2022/06/21 03:38:59;;;;;;;;;;;;;;;;;;1040133;28;3947;-53
2022/06/21 03:42:02;;;;;;;;;;;;;;;;;;1038543;28;3911;-54
2022/06/21 03:42:36;;;;;;;;;;;;;;;;;;1041954;28;2739;-50
2022/06/21 03:43:35;;;;;;;;;;;;;;;;;;1033932;28;3905;-50
2022/06/21 03:44:26;;;;;;;;;;;;;;;;;;1019383;28;3958;-48
2022/06/21 03:45:04;;;;;;;;;;;;;;;;;;1038373;28;3831;-50
2022/06/21 03:45:37;;;;;;;;;;;;;;;;;;1040448;28;3121;-53
2022/06/21 03:46:10;;;;;;;;;;;;;;;;;;1040261;28;3830;-49
2022/06/21 03:46:59;;;;;;;;;;;;;;;;;;1043591;28;3747;-52
2022/06/21 03:47:32;;;;;;;;;;;;;;;;;;1043110;28;3784;-52
2022/06/21 03:48:05;;;;;;;;;;;;;;;;;;1044166;28;3930;-53
2022/06/21 03:48:44;;;;;;;;;;;;;;;;;;1036460;28;3550;-52
2022/06/21 03:49:19;;;;;;;;;;;;;;;;;;1036752;28;4060;-50
2022/06/21 03:49:58;;;;;;;;;;;;;;;;;;1035033;28;3759;-49
2022/06/21 03:50:32;;;;;;;;;;;;;;;;;;1038012;28;3995;-51
2022/06/21 03:51:05;;;;;;;;;;;;;;;;;;1039926;28;3847;-50
2022/06/21 03:51:38;;;;;;;;;;;;;;;;;;1041164;28;2973;-52
2022/06/21 03:52:12;;;;;;;;;;;;;;;;;;1038193;28;3911;-52
2022/06/21 03:52:42;;;;;;;;;;;;;;;;;;1038339;28;4229;-50
2022/06/21 03:53:15;;;;;;;;;;;;;;;;;;1037648;28;3885;-49
2022/06/21 03:53:51;;;;;;;;;;;;;;;;;;1039851;28;3836;-50
2022/06/21 03:54:33;;;;;;;;;;;;;;;;;;1037986;28;3780;-51
2022/06/21 03:55:07;;;;;;;;;;;;;;;;;;1038979;28;3904;-52
2022/06/21 03:55:58;;;;;;;;;;;;;;;;;;1038883;28;3701;-53
2022/06/21 03:56:38;;;;;;;;;;;;;;;;;;1037777;28;3712;-52
2022/06/21 03:57:14;;;;;;;;;;;;;;;;;;1038760;28;4262;-51
2022/06/21 03:57:50;;;;;;;;;;;;;;;;;;1036511;28;3721;-55
2022/06/21 03:58:21;;;;;;;;;;;;;;;;;;1034358;28;3846;-51
2022/06/21 03:58:52;;;;;;;;;;;;;;;;;;1035279;28;3151;-52
2022/06/21 03:59:37;;;;;;;;;;;;;;;;;;1035806;28;3831;-50
2022/06/21 04:00:11;;;;;;;;;;;;;;;;;;1037759;28;3948;-48
2022/06/21 04:00:48;;;;;;;;;;;;;;;;;;1041548;28;2194;-53